createdAt,value
2018-06-13T00:00:20.559Z,16.17
2018-06-13T00:02:52.605Z,13.20
2018-06-13T00:05:21.294Z,17.90
2018-06-13T00:07:50.007Z,15.77
2018-06-13T00:10:18.333Z,17.93
2018-06-13T00:12:47.028Z,15.80
2018-06-13T00:15:15.767Z,17.50
2018-06-13T00:17:44.450Z,17.43
2018-06-13T00:20:13.095Z,14.90
2018-06-13T00:22:42.874Z,14.67
2018-06-13T00:25:11.544Z,15.30
2018-06-13T00:27:40.221Z,11.93
2018-06-13T00:30:08.915Z,14.03
2018-06-13T00:32:37.675Z,14.33
2018-06-13T00:35:06.728Z,14.60
2018-06-13T00:37:35.430Z,14.97
2018-06-13T00:40:04.149Z,15.07
2018-06-13T00:42:32.834Z,13.60
2018-06-13T00:45:01.588Z,17.03
2018-06-13T00:47:30.315Z,16.17
2018-06-13T00:49:59.040Z,20.40
2018-06-13T00:52:27.765Z,16.07
2018-06-13T00:54:56.429Z,17.17
2018-06-13T00:57:25.108Z,15.27
2018-06-13T00:59:53.813Z,17.03
2018-06-13T01:02:22.490Z,19.20
2018-06-13T01:04:51.463Z,16.73
2018-06-13T01:07:20.138Z,18.53
2018-06-13T01:09:48.838Z,16.40
2018-06-13T01:12:17.607Z,15.90
2018-06-13T01:14:46.674Z,16.70
2018-06-13T01:17:15.507Z,16.00
2018-06-13T01:19:44.998Z,16.60
2018-06-13T01:22:13.658Z,19.80
2018-06-13T01:24:41.995Z,17.57
2018-06-13T01:27:10.681Z,16.90
2018-06-13T01:29:39.400Z,16.33
2018-06-13T01:32:08.061Z,16.70
2018-06-13T01:34:36.777Z,20.53
2018-06-13T01:37:05.491Z,16.27
2018-06-13T01:39:34.188Z,17.63
2018-06-13T01:42:02.880Z,15.00
2018-06-13T01:44:31.543Z,16.97
2018-06-13T01:47:00.284Z,16.20
2018-06-13T01:49:28.969Z,14.97
2018-06-13T01:51:57.647Z,16.17
2018-06-13T01:54:26.373Z,17.20
2018-06-13T01:56:55.136Z,15.00
2018-06-13T01:59:23.844Z,15.20
2018-06-13T02:01:52.512Z,15.30
2018-06-13T02:04:21.178Z,15.93
2018-06-13T02:06:49.894Z,15.20
2018-06-13T02:09:18.598Z,15.23
2018-06-13T02:14:38.234Z,16.03
2018-06-13T02:17:06.930Z,16.87
2018-06-13T02:19:35.667Z,14.40
2018-06-13T02:22:04.341Z,14.27
2018-06-13T02:24:33.060Z,18.33
2018-06-13T02:27:01.745Z,13.37
2018-06-13T02:29:30.555Z,14.53
2018-06-13T02:31:59.258Z,16.67
2018-06-13T02:34:27.939Z,13.20
2018-06-13T02:36:56.648Z,15.20
2018-06-13T02:39:25.327Z,14.77
2018-06-13T02:41:54.063Z,14.60
2018-06-13T02:44:22.773Z,12.30
2018-06-13T02:46:51.449Z,13.73
2018-06-13T02:49:20.161Z,12.70
2018-06-13T02:51:48.874Z,11.83
2018-06-13T02:54:17.571Z,15.07
2018-06-13T02:56:46.270Z,14.30
2018-06-13T02:59:14.957Z,14.10
2018-06-13T03:01:43.667Z,14.03
2018-06-13T03:04:12.363Z,14.13
2018-06-13T03:06:41.087Z,15.17
2018-06-13T03:09:09.777Z,11.73
2018-06-13T03:11:38.451Z,13.07
2018-06-13T03:14:07.160Z,19.93
2018-06-13T03:16:35.875Z,12.80
2018-06-13T03:19:04.611Z,12.10
2018-06-13T03:21:33.312Z,13.83
2018-06-13T03:24:01.980Z,13.03
2018-06-13T03:26:30.710Z,14.13
2018-06-13T03:28:59.453Z,12.87
2018-06-13T03:31:28.156Z,19.70
2018-06-13T03:33:57.051Z,12.33
2018-06-13T03:36:25.345Z,11.53
2018-06-13T03:38:54.051Z,16.40
2018-06-13T03:41:22.749Z,13.77
2018-06-13T03:43:51.436Z,12.23
2018-06-13T03:46:20.102Z,13.00
2018-06-13T03:48:49.083Z,12.60
2018-06-13T03:51:17.785Z,11.63
2018-06-13T03:53:46.485Z,13.00
2018-06-13T03:56:15.186Z,11.93
2018-06-13T03:58:43.882Z,12.07
2018-06-13T04:01:12.630Z,12.53
2018-06-13T04:03:41.314Z,11.40
2018-06-13T04:06:10.017Z,13.57
2018-06-13T04:08:38.742Z,11.90
2018-06-13T04:11:07.033Z,14.00
2018-06-13T04:13:35.727Z,12.90
2018-06-13T04:16:04.635Z,12.87
2018-06-13T04:18:33.347Z,14.23
2018-06-13T04:21:02.042Z,11.93
2018-06-13T04:23:30.764Z,12.67
2018-06-13T04:25:59.443Z,18.77
2018-06-13T04:28:28.142Z,13.60
2018-06-13T04:30:56.819Z,15.40
2018-06-13T04:33:25.549Z,13.23
2018-06-13T04:35:54.267Z,13.17
2018-06-13T04:38:22.929Z,14.17
2018-06-13T04:40:51.637Z,14.10
2018-06-13T04:43:20.320Z,14.20
2018-06-13T04:45:49.023Z,16.70
2018-06-13T04:48:17.366Z,13.60
2018-06-13T04:50:46.066Z,14.10
2018-06-13T04:53:14.764Z,15.77
2018-06-13T04:55:43.461Z,14.90
2018-06-13T04:58:12.158Z,14.03
2018-06-13T05:00:40.997Z,18.37
2018-06-13T05:03:09.705Z,15.30
2018-06-13T05:05:38.455Z,16.67
2018-06-13T05:08:07.181Z,15.07
2018-06-13T05:10:35.936Z,13.20
2018-06-13T05:13:04.634Z,14.20
2018-06-13T05:15:33.343Z,16.40
2018-06-13T05:18:11.613Z,13.17
2018-06-13T05:20:40.442Z,14.70
2018-06-13T05:23:09.618Z,17.33
2018-06-13T05:25:38.357Z,13.63
2018-06-13T05:28:07.041Z,14.03
2018-06-13T05:30:35.787Z,14.20
2018-06-13T05:33:04.520Z,13.67
2018-06-13T05:35:33.238Z,14.10
2018-06-13T05:38:01.917Z,16.40
2018-06-13T05:40:30.602Z,14.63
2018-06-13T05:42:59.290Z,15.03
2018-06-13T05:45:27.953Z,15.40
2018-06-13T05:47:56.682Z,16.73
2018-06-13T05:50:25.430Z,13.53
2018-06-13T05:52:54.242Z,13.60
2018-06-13T05:55:22.959Z,13.17
2018-06-13T05:57:51.695Z,13.03
2018-06-13T06:00:20.422Z,13.10
2018-06-13T06:02:49.087Z,13.43
2018-06-13T06:05:17.786Z,12.53
2018-06-13T06:07:46.506Z,12.43
2018-06-13T06:10:15.256Z,14.10
2018-06-13T06:12:43.979Z,12.27
2018-06-13T06:15:12.682Z,12.33
2018-06-13T06:17:41.398Z,12.90
2018-06-13T06:20:10.085Z,12.63
2018-06-13T06:22:38.770Z,10.57
2018-06-13T06:25:08.926Z,12.33
2018-06-13T06:27:37.622Z,10.33
2018-06-13T06:30:26.198Z,12.40
2018-06-13T06:32:54.518Z,9.40
2018-06-13T06:35:23.186Z,9.63
2018-06-13T06:37:51.897Z,10.07
2018-06-13T06:40:20.602Z,10.97
2018-06-13T06:43:02.675Z,9.43
2018-06-13T06:45:31.371Z,9.20
2018-06-13T06:48:00.039Z,8.03
2018-06-13T06:50:28.765Z,11.00
2018-06-13T06:52:57.475Z,7.97
2018-06-13T06:55:26.230Z,8.53
2018-06-13T06:57:54.946Z,8.40
2018-06-13T07:00:23.626Z,7.00
2018-06-13T07:02:52.357Z,8.70
2018-06-13T07:05:21.046Z,8.80
2018-06-13T07:07:49.798Z,11.33
2018-06-13T07:10:18.495Z,10.80
2018-06-13T07:12:47.239Z,9.17
2018-06-13T07:15:15.998Z,11.00
2018-06-13T07:17:44.698Z,10.80
2018-06-13T07:20:13.431Z,9.57
2018-06-13T07:22:42.167Z,10.83
2018-06-13T07:25:10.855Z,11.17
2018-06-13T07:27:39.565Z,11.53
2018-06-13T07:30:08.308Z,11.47
2018-06-13T07:32:37.011Z,11.07
2018-06-13T07:35:05.706Z,10.93
2018-06-13T07:37:34.466Z,12.27
2018-06-13T07:40:03.226Z,11.43
2018-06-13T07:42:31.944Z,15.63
2018-06-13T07:45:00.726Z,12.67
2018-06-13T07:47:29.402Z,13.80
2018-06-13T07:49:58.138Z,11.90
2018-06-13T07:52:26.867Z,12.43
2018-06-13T07:54:55.591Z,12.80
2018-06-13T07:57:24.292Z,11.73
2018-06-13T07:59:52.970Z,11.70
2018-06-13T08:02:21.750Z,13.27
2018-06-13T08:04:50.419Z,11.77
2018-06-13T08:07:19.133Z,10.60
2018-06-13T08:09:47.866Z,12.73
2018-06-13T08:12:16.602Z,10.63
2018-06-13T08:14:45.310Z,12.37
2018-06-13T08:17:14.022Z,11.73
2018-06-13T08:19:42.728Z,11.20
2018-06-13T08:22:11.458Z,12.27
2018-06-13T08:24:51.422Z,10.33
2018-06-13T08:27:20.331Z,10.17
2018-06-13T08:29:49.014Z,9.70
2018-06-13T08:32:17.714Z,10.27
2018-06-13T08:34:46.421Z,8.73
2018-06-13T08:37:15.134Z,9.50
2018-06-13T08:39:43.899Z,8.47
2018-06-13T08:42:12.583Z,9.73
2018-06-13T08:44:41.263Z,8.50
2018-06-13T08:47:09.977Z,8.03
2018-06-13T08:49:38.668Z,9.70
2018-06-13T08:52:07.379Z,7.77
2018-06-13T08:54:36.072Z,8.00
2018-06-13T08:57:04.881Z,7.57
2018-06-13T08:59:33.579Z,7.73
2018-06-13T09:02:02.274Z,8.27
2018-06-13T09:04:30.984Z,7.50
2018-06-13T09:06:59.649Z,7.10
2018-06-13T09:09:28.350Z,7.20
2018-06-13T09:11:57.040Z,8.23
2018-06-13T09:14:25.702Z,7.77
2018-06-13T09:16:55.249Z,9.97
2018-06-13T09:19:23.959Z,6.67
2018-06-13T09:21:52.305Z,7.17
2018-06-13T09:24:21.008Z,6.50
2018-06-13T09:26:49.746Z,7.60
2018-06-13T09:29:19.367Z,8.87
2018-06-13T09:31:48.307Z,6.87
2018-06-13T09:34:16.983Z,7.40
2018-06-13T09:36:45.717Z,7.00
2018-06-13T09:39:14.448Z,6.73
2018-06-13T09:41:48.520Z,6.40
2018-06-13T09:44:17.244Z,6.43
2018-06-13T09:46:48.920Z,6.30
2018-06-13T09:49:14.764Z,6.17
2018-06-13T09:51:43.720Z,7.40
2018-06-13T09:54:12.526Z,6.50
2018-06-13T09:56:41.268Z,6.90
2018-06-13T09:59:14.899Z,5.43
2018-06-13T10:02:18.749Z,4.83
2018-06-13T10:04:48.467Z,5.30
2018-06-13T10:07:17.223Z,8.53
2018-06-13T10:09:45.920Z,5.00
2018-06-13T10:12:14.698Z,5.30
2018-06-13T10:14:43.387Z,4.70
2018-06-13T10:17:24.395Z,6.33
2018-06-13T10:19:53.075Z,5.50
2018-06-13T10:22:21.932Z,4.90
2018-06-13T10:24:50.741Z,6.37
2018-06-13T10:27:24.570Z,4.73
2018-06-13T10:29:53.262Z,5.60
2018-06-13T10:32:21.961Z,5.60
2018-06-13T10:34:50.671Z,5.60
2018-06-13T10:37:18.969Z,4.80
2018-06-13T10:39:49.729Z,5.37
2018-06-13T10:42:19.566Z,5.37
2018-06-13T10:44:48.293Z,7.03
2018-06-13T10:47:16.995Z,5.43
2018-06-13T10:49:45.674Z,5.27
2018-06-13T10:52:14.338Z,5.07
2018-06-13T10:54:43.024Z,4.40
2018-06-13T10:57:11.764Z,4.47
2018-06-13T10:59:40.541Z,5.00
2018-06-13T11:02:09.695Z,5.17
2018-06-13T11:04:38.482Z,4.90
2018-06-13T11:07:07.165Z,5.40
2018-06-13T11:09:35.829Z,4.97
2018-06-13T11:12:04.590Z,5.13
2018-06-13T11:14:33.257Z,4.20
2018-06-13T11:17:02.044Z,5.17
2018-06-13T11:19:31.274Z,5.80
2018-06-13T11:21:59.985Z,6.17
2018-06-13T11:24:28.681Z,5.20
2018-06-13T11:26:57.348Z,5.23
2018-06-13T11:29:26.009Z,5.60
2018-06-13T11:31:54.728Z,5.50
2018-06-13T11:34:23.383Z,5.40
2018-06-13T11:36:52.540Z,5.20
2018-06-13T11:39:21.346Z,5.30
2018-06-13T11:41:50.032Z,5.47
2018-06-13T11:44:18.759Z,5.40
2018-06-13T11:46:47.451Z,6.13
2018-06-13T11:49:16.142Z,6.73
2018-06-13T11:51:44.816Z,6.67
2018-06-13T11:54:13.493Z,4.70
2018-06-13T11:56:42.251Z,7.30
2018-06-13T11:59:10.954Z,7.70
2018-06-13T12:01:39.718Z,5.60
2018-06-13T12:04:08.498Z,6.30
2018-06-13T12:06:37.202Z,5.50
2018-06-13T12:09:07.349Z,6.20
2018-06-13T12:11:36.105Z,6.00
2018-06-13T12:14:04.799Z,6.27
2018-06-13T12:16:33.490Z,7.10
2018-06-13T12:19:02.220Z,6.93
2018-06-13T12:21:30.911Z,7.27
2018-06-13T12:23:59.643Z,5.83
2018-06-13T12:26:28.370Z,5.87
2018-06-13T12:28:57.083Z,4.97
2018-06-13T12:31:25.749Z,5.27
2018-06-13T12:33:54.819Z,5.50
2018-06-13T12:36:23.469Z,6.23
2018-06-13T12:38:52.159Z,6.13
2018-06-13T12:41:20.868Z,5.50
2018-06-13T12:43:49.586Z,6.33
2018-06-13T12:46:18.448Z,6.43
2018-06-13T12:48:47.444Z,7.20
2018-06-13T12:51:18.177Z,5.80
2018-06-13T12:53:47.242Z,6.10
2018-06-13T12:56:15.998Z,5.37
2018-06-13T12:58:45.686Z,6.20
2018-06-13T13:01:14.349Z,6.03
2018-06-13T13:03:43.059Z,6.30
2018-06-13T13:06:11.750Z,6.60
2018-06-13T13:08:40.471Z,5.93
2018-06-13T13:11:09.203Z,5.70
2018-06-13T13:13:37.871Z,5.30
2018-06-13T13:16:06.677Z,5.40
2018-06-13T13:18:35.357Z,5.67
2018-06-13T13:21:04.087Z,5.17
2018-06-13T13:23:32.772Z,5.73
2018-06-13T13:26:01.470Z,5.50
2018-06-13T13:28:30.180Z,4.93
2018-06-13T13:30:58.895Z,6.23
2018-06-13T13:33:27.612Z,4.93
2018-06-13T13:35:56.399Z,4.93
2018-06-13T13:38:25.105Z,6.43
2018-06-13T13:40:53.807Z,4.57
2018-06-13T13:43:22.505Z,4.03
2018-06-13T13:45:51.353Z,5.87
2018-06-13T13:48:19.973Z,3.97
2018-06-13T13:50:50.718Z,4.73
2018-06-13T13:53:19.439Z,4.60
2018-06-13T13:55:48.117Z,4.67
2018-06-13T13:58:16.797Z,4.53
2018-06-13T14:00:46.485Z,4.10
2018-06-13T14:03:15.202Z,4.77
2018-06-13T14:05:43.955Z,4.33
2018-06-13T14:08:12.883Z,4.73
2018-06-13T14:10:41.554Z,4.43
2018-06-13T14:13:10.218Z,3.93
2018-06-13T14:15:39.662Z,5.60
2018-06-13T14:18:11.442Z,3.80
2018-06-13T14:20:40.230Z,4.13
2018-06-13T14:23:27.859Z,3.80
2018-06-13T14:25:56.603Z,4.37
2018-06-13T14:28:25.382Z,3.77
2018-06-13T14:30:54.070Z,4.10
2018-06-13T14:33:22.821Z,3.50
2018-06-13T14:35:51.525Z,3.57
2018-06-13T14:38:19.845Z,5.63
2018-06-13T14:40:48.502Z,4.13
2018-06-13T14:43:17.381Z,4.97
2018-06-13T14:45:46.102Z,3.90
2018-06-13T14:48:18.261Z,3.97
2018-06-13T14:50:47.048Z,4.20
2018-06-13T14:53:15.841Z,3.73
2018-06-13T14:55:50.693Z,4.33
2018-06-13T14:58:21.729Z,4.83
2018-06-13T15:00:50.573Z,4.30
2018-06-13T15:03:19.274Z,4.37
2018-06-13T15:05:53.447Z,4.43
2018-06-13T15:08:22.835Z,6.27
2018-06-13T15:10:51.570Z,4.80
2018-06-13T15:13:20.382Z,4.03
2018-06-13T15:15:49.452Z,3.93
2018-06-13T15:18:18.142Z,4.83
2018-06-13T15:20:46.890Z,3.70
2018-06-13T15:23:15.600Z,4.60
2018-06-13T15:25:44.262Z,4.50
2018-06-13T15:28:13.001Z,3.83
2018-06-13T15:30:41.731Z,3.93
2018-06-13T15:33:12.201Z,3.10
2018-06-13T15:35:40.993Z,4.20
2018-06-13T15:38:09.689Z,4.37
2018-06-13T15:40:38.459Z,4.50
2018-06-13T15:43:07.150Z,4.30
2018-06-13T15:45:35.886Z,4.67
2018-06-13T15:48:04.823Z,3.73
2018-06-13T15:50:33.573Z,4.10
2018-06-13T15:53:02.292Z,5.00
2018-06-13T15:55:30.958Z,4.23
2018-06-13T15:57:59.671Z,4.30
2018-06-13T16:00:28.371Z,3.80
2018-06-13T16:02:57.038Z,4.37
2018-06-13T16:05:29.619Z,3.67
2018-06-13T16:07:58.318Z,4.07
2018-06-13T16:10:27.068Z,4.33
2018-06-13T16:12:55.779Z,5.00
2018-06-13T16:15:24.530Z,4.33
2018-06-13T16:17:53.239Z,4.50
2018-06-13T16:20:22.160Z,4.40
2018-06-13T16:22:50.899Z,4.60
2018-06-13T16:25:19.602Z,5.23
2018-06-13T16:27:48.295Z,4.90
2018-06-13T16:30:17.044Z,4.83
2018-06-13T16:32:45.791Z,5.97
2018-06-13T16:35:14.523Z,6.60
2018-06-13T16:37:43.203Z,5.13
2018-06-13T16:40:11.501Z,4.50
2018-06-13T16:42:40.211Z,4.90
2018-06-13T16:45:08.932Z,5.57
2018-06-13T16:47:37.688Z,6.70
2018-06-13T16:50:17.661Z,5.47
2018-06-13T16:55:18.882Z,6.30
2018-06-13T16:57:48.147Z,4.47
2018-06-13T17:00:17.208Z,4.63
2018-06-13T17:02:45.963Z,5.10
2018-06-13T17:05:14.850Z,4.63
2018-06-13T17:07:43.659Z,4.90
2018-06-13T17:10:12.447Z,5.10
2018-06-13T17:12:41.393Z,5.23
2018-06-13T17:15:09.745Z,5.47
2018-06-13T17:17:38.550Z,5.10
2018-06-13T17:20:07.312Z,4.70
2018-06-13T17:22:36.013Z,5.07
2018-06-13T17:25:05.718Z,6.20
2018-06-13T17:27:34.428Z,4.60
2018-06-13T17:30:03.264Z,4.07
2018-06-13T17:32:32.659Z,4.17
2018-06-13T17:35:01.370Z,3.83
2018-06-13T17:37:35.778Z,5.10
2018-06-13T17:40:04.561Z,4.50
2018-06-13T17:42:34.490Z,4.50
2018-06-13T17:45:03.316Z,4.73
2018-06-13T17:47:31.981Z,5.47
2018-06-13T17:50:00.655Z,4.70
2018-06-13T17:52:29.362Z,5.63
2018-06-13T17:54:58.023Z,4.80
2018-06-13T17:57:26.708Z,4.90
2018-06-13T17:59:55.375Z,4.90
2018-06-13T18:02:24.070Z,4.17
2018-06-13T18:05:07.616Z,4.83
2018-06-13T18:07:36.301Z,4.40
2018-06-13T18:10:05.080Z,7.63
2018-06-13T18:12:33.783Z,4.73
2018-06-13T18:15:02.483Z,4.70
2018-06-13T18:17:31.418Z,5.33
2018-06-13T18:25:47.974Z,4.70
2018-06-13T18:28:16.677Z,5.77
2018-06-13T18:33:40.361Z,5.90
2018-06-13T18:36:10.387Z,5.50
2018-06-13T18:38:39.072Z,6.00
2018-06-13T18:41:07.810Z,5.63
2018-06-13T18:43:36.491Z,5.23
2018-06-13T18:46:05.744Z,5.80
2018-06-13T18:48:34.446Z,5.77
2018-06-13T18:51:04.351Z,5.90
2018-06-13T18:53:33.041Z,6.30
2018-06-13T18:56:01.747Z,5.73
2018-06-13T18:58:30.732Z,5.50
2018-06-13T19:00:59.494Z,5.47
2018-06-13T19:03:28.494Z,6.10
2018-06-13T19:05:57.293Z,5.87
2018-06-13T19:08:25.965Z,7.97
2018-06-13T19:10:54.727Z,6.03
2018-06-13T19:13:23.391Z,6.87
2018-06-13T19:15:52.101Z,6.43
2018-06-13T19:18:20.787Z,6.83
2018-06-13T19:20:49.474Z,6.33
2018-06-13T19:23:18.194Z,7.03
2018-06-13T19:25:46.927Z,10.23
2018-06-13T19:28:15.613Z,7.00
2018-06-13T19:30:44.353Z,6.80
2018-06-13T19:33:13.061Z,8.37
2018-06-13T19:35:41.795Z,6.47
2018-06-13T19:38:10.483Z,6.57
2018-06-13T19:40:39.215Z,5.70
2018-06-13T19:43:13.188Z,6.23
2018-06-13T19:45:41.878Z,8.57
2018-06-13T19:48:15.840Z,6.40
2018-06-13T19:50:44.545Z,6.03
2018-06-13T19:53:18.703Z,6.47
2018-06-13T19:55:52.673Z,7.10
2018-06-13T19:58:21.404Z,6.60
2018-06-13T20:00:50.154Z,6.40
2018-06-13T20:03:24.750Z,6.17
2018-06-13T20:05:53.459Z,6.10
2018-06-13T20:08:22.151Z,5.43
2018-06-13T20:10:50.866Z,6.40
2018-06-13T20:13:24.874Z,6.53
2018-06-13T20:15:58.853Z,6.10
2018-06-13T20:18:32.871Z,6.67
2018-06-13T20:21:02.881Z,6.07
2018-06-13T20:23:31.777Z,6.47
2018-06-13T20:26:05.756Z,6.47
2018-06-13T20:28:39.717Z,6.50
2018-06-13T20:31:29.661Z,6.83
2018-06-13T20:33:58.359Z,5.93
2018-06-13T20:36:27.190Z,6.33
2018-06-13T20:38:55.959Z,6.50
2018-06-13T20:41:24.598Z,5.70
2018-06-13T20:43:53.309Z,6.57
2018-06-13T20:46:21.982Z,6.50
2018-06-13T20:48:50.672Z,7.77
2018-06-13T20:51:19.427Z,6.60
2018-06-13T20:53:48.148Z,7.30
2018-06-13T20:56:16.820Z,8.97
2018-06-13T20:58:45.610Z,9.07
2018-06-13T21:01:14.294Z,8.50
2018-06-13T21:03:43.005Z,5.77
2018-06-13T21:06:11.680Z,6.83
2018-06-13T21:08:40.423Z,5.93
2018-06-13T21:11:09.099Z,6.20
2018-06-13T21:13:37.804Z,6.40
2018-06-13T21:16:07.103Z,6.80
2018-06-13T21:18:35.843Z,6.47
2018-06-13T21:21:04.573Z,5.47
2018-06-13T21:23:33.303Z,6.90
2018-06-13T21:26:02.013Z,6.70
2018-06-13T21:28:30.763Z,6.50
2018-06-13T21:30:59.457Z,6.30
2018-06-13T21:33:29.010Z,6.40
2018-06-13T21:35:57.675Z,5.87
2018-06-13T21:38:26.375Z,6.83
2018-06-13T21:40:55.091Z,6.87
2018-06-13T21:43:23.818Z,7.23
2018-06-13T21:45:52.529Z,6.87
2018-06-13T21:48:21.232Z,6.77
2018-06-13T21:50:49.936Z,7.60
2018-06-13T21:53:18.665Z,7.70
2018-06-13T21:55:47.346Z,7.00
2018-06-13T21:58:16.080Z,6.77
2018-06-13T22:00:44.751Z,7.30
2018-06-13T22:03:13.510Z,6.70
2018-06-13T22:05:42.207Z,9.47
2018-06-13T22:08:10.910Z,6.30
2018-06-13T22:10:39.633Z,6.30
2018-06-13T22:13:08.380Z,6.80
2018-06-13T22:15:37.098Z,7.10
2018-06-13T22:18:06.009Z,7.00
2018-06-13T22:20:40.052Z,7.10
2018-06-13T22:23:08.777Z,6.70
2018-06-13T22:25:37.464Z,7.47
2018-06-13T22:28:06.182Z,6.97
2018-06-13T22:30:34.913Z,6.80
2018-06-13T22:33:03.599Z,6.63
2018-06-13T22:35:32.396Z,7.03
2018-06-13T22:38:01.073Z,7.03
2018-06-13T22:40:29.738Z,6.87
2018-06-13T22:42:58.421Z,8.40
2018-06-13T22:45:27.122Z,7.80
2018-06-13T22:47:55.841Z,7.20
2018-06-13T22:50:24.146Z,6.60
2018-06-13T22:52:52.826Z,10.70
2018-06-13T22:55:21.165Z,7.70
2018-06-13T22:57:49.863Z,6.67
2018-06-13T23:00:32.639Z,7.63
2018-06-13T23:03:01.388Z,7.10
2018-06-13T23:05:30.075Z,8.10
2018-06-13T23:07:58.775Z,6.80
2018-06-13T23:10:27.491Z,9.87
2018-06-13T23:12:56.162Z,8.40
2018-06-13T23:15:24.852Z,7.63
2018-06-13T23:17:53.545Z,7.73
2018-06-13T23:20:22.237Z,9.20
2018-06-13T23:22:50.909Z,7.47
2018-06-13T23:25:19.573Z,7.53
2018-06-13T23:27:48.299Z,8.00
2018-06-13T23:30:16.962Z,7.30
2018-06-13T23:32:45.672Z,7.90
2018-06-13T23:35:14.315Z,7.53
2018-06-13T23:37:43.025Z,7.63
2018-06-13T23:40:11.694Z,8.20
2018-06-13T23:42:40.356Z,8.10
2018-06-13T23:45:08.666Z,10.23
2018-06-13T23:47:37.339Z,8.07
2018-06-13T23:50:06.092Z,7.63
2018-06-13T23:52:34.827Z,7.77
2018-06-13T23:55:03.635Z,7.97
2018-06-13T23:57:32.287Z,7.83
